AirNav   Everest Fuels
 
 1698 users online  

MO92 SSM Health Depaul Hospital-St Louis Heliport
Bridgeton, Missouri, USA

GOING TO BRIDGETON?


FAA INFORMATION EFFECTIVE 17 JUNE 2021

Location

FAA Identifier: MO92
Lat/Long: 38-45-07.8100N 090-25-56.6400W
38-45.130167N 090-25.944000W
38.7521694,-90.4324000
(estimated)
Elevation: 543 ft. / 166 m (estimated)
Variation: 02E (1985)
Time zone: UTC -5 (UTC -6 during Standard Time)
Zip code: 63044

Heliport Operations

Heliport use: Private use, MEDICAL.
Activation date: 07/1977
Control tower: no
ARTCC: KANSAS CITY CENTER
FSS: SAINT LOUIS FLIGHT SERVICE STATION
Attendance: UNATNDD
Wind indicator: yes
Segmented circle: no
Lights: FOR HELIPAD LGTS CALL 314-344-7055.

Heliport Communications

WX ASOS at STL (2.9 nm E): PHONE 314-890-4790
WX ASOS at SET (11 nm N): 118.075 (636-250-4590)
WX ASOS at SUS (12 nm SW): 134.8 (314-890-7255)
WX ASOS at CPS (17 nm SE): PHONE 618-332-0001
WX AWOS-3 at ALN (20 nm NE): 128.0 (618-259-7231)

Nearby radio navigation aids

VOR radial/distance  VOR name  Freq  Var
STLr159/6.9ST LOUIS VORTAC117.4001E
TOYr268/24.1TROY VORTAC116.0004E
FTZr077/25.5FORISTELL VORTAC110.8005E

 
NDB name  Hdg/Dist  Freq  Var  ID
EAVES051/7.022701WFZ ..-. --..
CIVIC MEMORIAL245/19.526301WCVM -.-. ...- --

Heliport Services

Runway Information

Helipad H1

Dimensions: 60 x 60 ft. / 18 x 18 m
FATO 90 FT X 90 FT.
Surface: asphalt
Runway edge lights: PERI
YELLOW LGTS AT FATO EDGE AND WHITE LGTS AT TLOF EDGE.
Latitude: 38-45.130167N
Longitude: 090-25.944000W
Elevation: 543.0 ft.
Traffic pattern: leftleft
Obstructions: 50 ft. pole

Heliport Ownership and Management from official FAA records

Ownership: Privately-owned
Owner: SSM HEALTH ST. LOUIS
12303 DEPAUL DRIVE
ST. LOUIS, MO 63044
Phone (314) 989-2532
Manager: SAMANTHA BLEY
1015 CORPORATE SQ DR., SUITE 110
ST. LOUIS, MO 63132
Phone (314) 989-2532
ADDITIONAL CONTACT: LESLIE THORNBURG 314-989-6134 LESLIE.THORNBURG@SSMHEALTH.COM

Additional Remarks

FOR CD CTC ST LOUIS APCH AT 314-890-1018.

Instrument Procedures

There are no published instrument procedures at MO92.

Some nearby airports with instrument procedures:

KSTL - St Louis Lambert International Airport (3 nm E)
1H0 - Creve Coeur Airport (4 nm SW)
KSET - St Charles County Smartt Airport (11 nm N)
KSUS - Spirit of St Louis Airport (12 nm SW)
KCPS - St Louis Downtown Airport (17 nm SE)
KALN - St Louis Regional Airport (20 nm NE)
 
Loc | Ops | Rwys | IFR | FBO | Links
Com | Nav | Svcs | Stats | Notes
Area around MO92 (SSM Health Depaul Hospital-St Louis Heliport)
 
Road maps at: MapQuest Bing Google
 
Aerial photo
No photo
 
Sectional chart

 
Airport distance calculator
Flying to SSM Health Depaul Hospital-St Louis Heliport? Find the distance to fly.

From to MO92

Sunrise and sunset
Times for 24-Jun-2021
 Local
(UTC-5)
 Zulu
(UTC)
Morning civil twilight05:0710:07
Sunrise05:3910:39
Sunset20:2901:29
Evening civil twilight21:0102:01

Current date and time
Zulu (UTC)  24-Jun-2021 19:22:37
Local (UTC-5)  24-Jun-2021 14:22:37
 
METAR
KSTL 
3nm E 
241851Z 21008KT 10SM FEW050 SCT070 BKN160 OVC250 27/21 A2999 RMK AO2 SLP146 RAE41 TSE22 P0000 T02720211
KSET 
11nm N 
241854Z AUTO 17008KT 10SM FEW120 26/22 A2996 RMK AO2 RAE1756B08E31 SLP139 P0001 T02610217 $
KSUS 
12nm SW 
241854Z 14004KT 10SM CLR 25/22 A2996 RMK AO2 RAE31 TSE1758 PRESFR SLP136 P0000 T02500222
KCPS 
17nm SE 
241853Z 17005KT 10SM SCT032 28/22 A2998 RMK AO2 SLP149 T02780222
TAF
KSTL 
3nm E 
241723Z 2418/2524 19008KT P6SM VCTS OVC050CB TEMPO 2418/2420 3SM TSRA FM242100 18012G18KT P6SM BKN050 FM250700 19011KT 4SM SHRA BR VCTS OVC040CB FM251300 19010KT P6SM BKN035 FM252000 20011KT P6SM SHRA VCTS BKN045CB
KSUS 
12nm SW 
241723Z 2418/2518 20008KT P6SM VCTS OVC050CB TEMPO 2418/2420 3SM TSRA FM242100 18012KT P6SM BKN050 FM250700 19009KT 4SM SHRA BR VCTS OVC040CB FM251300 19009KT P6SM BKN035
KCPS 
17nm SE 
241723Z 2418/2518 19008KT P6SM OVC050 FM241900 19009KT P6SM VCTS OVC050CB FM242100 18011G18KT P6SM BKN050 FM250800 19010KT 4SM SHRA BR VCTS OVC040CB FM251400 19009KT P6SM BKN035
NOTAMs
Click for the latest NOTAMs
NOTAMs are issued by the DoD/FAA and will open in a separate window not controlled by AirNav.

 

 
 

Would you like to see your business listed on this page?

 If your business provides an interesting product or service to pilots, flight crews, aircraft, or users of the SSM Health Depaul Hospital-St Louis Heliport, you should consider listing it here.  To start the listing process, click on the button below
 
Add a business
 

Other Pages about SSM Health Depaul Hospital-St Louis Heliport

Update a link
 
Copyright © AirNav, LLC. All rights reserved. Privacy Policy  Contact